sensor_id;sensor_type;location;lat;lon;timestamp;P1;durP1;ratioP1;P2;durP2;ratioP2
56581;SDS011;42463;52.214;21.238;2022-10-16T00:01:13;27.90;;;16.90;;
56581;SDS011;42463;52.214;21.238;2022-10-16T00:03:40;23.80;;;15.80;;
56581;SDS011;42463;52.214;21.238;2022-10-16T00:06:06;23.70;;;16.00;;
56581;SDS011;42463;52.214;21.238;2022-10-16T00:08:31;25.00;;;17.00;;
56581;SDS011;42463;52.214;21.238;2022-10-16T00:10:59;28.10;;;17.10;;
56581;SDS011;42463;52.214;21.238;2022-10-16T00:13:25;28.90;;;16.60;;
56581;SDS011;42463;52.214;21.238;2022-10-16T00:15:50;28.80;;;17.10;;
56581;SDS011;42463;52.214;21.238;2022-10-16T00:18:17;28.40;;;17.70;;
56581;SDS011;42463;52.214;21.238;2022-10-16T00:20:42;29.20;;;17.10;;
56581;SDS011;42463;52.214;21.238;2022-10-16T00:23:06;27.90;;;18.60;;
56581;SDS011;42463;52.214;21.238;2022-10-16T00:25:32;29.10;;;17.80;;
56581;SDS011;42463;52.214;21.238;2022-10-16T00:27:57;28.40;;;18.00;;
56581;SDS011;42463;52.214;21.238;2022-10-16T00:30:22;30.90;;;18.20;;
56581;SDS011;42463;52.214;21.238;2022-10-16T00:32:48;25.40;;;17.60;;
56581;SDS011;42463;52.214;21.238;2022-10-16T00:35:13;29.20;;;18.10;;
56581;SDS011;42463;52.214;21.238;2022-10-16T00:37:38;31.80;;;18.70;;
56581;SDS011;42463;52.214;21.238;2022-10-16T00:40:02;28.60;;;17.70;;
56581;SDS011;42463;52.214;21.238;2022-10-16T00:42:27;29.10;;;18.50;;
56581;SDS011;42463;52.214;21.238;2022-10-16T00:44:52;27.10;;;18.00;;
56581;SDS011;42463;52.214;21.238;2022-10-16T00:47:19;31.30;;;17.10;;
56581;SDS011;42463;52.214;21.238;2022-10-16T00:49:47;28.00;;;17.40;;
56581;SDS011;42463;52.214;21.238;2022-10-16T00:52:13;29.70;;;17.30;;
56581;SDS011;42463;52.214;21.238;2022-10-16T00:54:38;29.90;;;17.30;;
56581;SDS011;42463;52.214;21.238;2022-10-16T00:57:04;30.50;;;18.30;;
56581;SDS011;42463;52.214;21.238;2022-10-16T00:59:30;29.90;;;18.00;;
56581;SDS011;42463;52.214;21.238;2022-10-16T01:01:56;30.90;;;18.20;;
56581;SDS011;42463;52.214;21.238;2022-10-16T01:04:22;26.50;;;17.80;;
56581;SDS011;42463;52.214;21.238;2022-10-16T01:06:50;29.40;;;18.50;;
56581;SDS011;42463;52.214;21.238;2022-10-16T01:09:21;30.70;;;19.00;;
56581;SDS011;42463;52.214;21.238;2022-10-16T01:11:54;33.10;;;19.00;;
56581;SDS011;42463;52.214;21.238;2022-10-16T01:14:34;30.20;;;19.60;;
56581;SDS011;42463;52.214;21.238;2022-10-16T01:17:04;31.00;;;19.20;;
56581;SDS011;42463;52.214;21.238;2022-10-16T01:19:40;26.90;;;17.80;;
56581;SDS011;42463;52.214;21.238;2022-10-16T01:22:16;30.70;;;19.00;;
56581;SDS011;42463;52.214;21.238;2022-10-16T01:24:43;31.30;;;19.40;;
56581;SDS011;42463;52.214;21.238;2022-10-16T01:27:12;29.10;;;18.80;;
56581;SDS011;42463;52.214;21.238;2022-10-16T01:29:41;28.20;;;18.70;;
56581;SDS011;42463;52.214;21.238;2022-10-16T01:32:13;26.50;;;18.00;;
56581;SDS011;42463;52.214;21.238;2022-10-16T01:34:44;27.20;;;17.40;;
56581;SDS011;42463;52.214;21.238;2022-10-16T01:37:14;25.30;;;17.70;;
56581;SDS011;42463;52.214;21.238;2022-10-16T01:39:45;29.70;;;18.10;;
56581;SDS011;42463;52.214;21.238;2022-10-16T01:42:14;28.90;;;18.80;;
56581;SDS011;42463;52.214;21.238;2022-10-16T01:44:42;30.60;;;19.20;;
56581;SDS011;42463;52.214;21.238;2022-10-16T01:47:08;29.90;;;19.00;;
56581;SDS011;42463;52.214;21.238;2022-10-16T01:49:36;30.00;;;19.60;;
56581;SDS011;42463;52.214;21.238;2022-10-16T01:52:04;32.40;;;20.20;;
56581;SDS011;42463;52.214;21.238;2022-10-16T01:54:31;31.10;;;19.30;;
56581;SDS011;42463;52.214;21.238;2022-10-16T01:56:59;30.80;;;19.40;;
56581;SDS011;42463;52.214;21.238;2022-10-16T01:59:26;29.30;;;17.70;;
56581;SDS011;42463;52.214;21.238;2022-10-16T02:01:54;28.70;;;19.40;;
56581;SDS011;42463;52.214;21.238;2022-10-16T02:04:23;29.40;;;20.70;;
56581;SDS011;42463;52.214;21.238;2022-10-16T02:06:50;30.70;;;20.20;;
56581;SDS011;42463;52.214;21.238;2022-10-16T02:09:16;28.40;;;19.90;;
56581;SDS011;42463;52.214;21.238;2022-10-16T02:11:40;28.90;;;19.50;;
56581;SDS011;42463;52.214;21.238;2022-10-16T02:14:05;29.40;;;19.80;;
56581;SDS011;42463;52.214;21.238;2022-10-16T02:16:34;28.30;;;20.30;;
56581;SDS011;42463;52.214;21.238;2022-10-16T02:19:00;27.10;;;20.10;;
56581;SDS011;42463;52.214;21.238;2022-10-16T02:21:25;30.60;;;20.30;;
56581;SDS011;42463;52.214;21.238;2022-10-16T02:23:54;31.00;;;19.80;;
56581;SDS011;42463;52.214;21.238;2022-10-16T02:26:25;32.30;;;20.10;;
56581;SDS011;42463;52.214;21.238;2022-10-16T02:28:54;30.40;;;20.10;;
56581;SDS011;42463;52.214;21.238;2022-10-16T02:31:23;32.00;;;21.10;;
56581;SDS011;42463;52.214;21.238;2022-10-16T02:33:51;30.90;;;20.40;;
56581;SDS011;42463;52.214;21.238;2022-10-16T02:36:17;29.00;;;20.20;;
56581;SDS011;42463;52.214;21.238;2022-10-16T02:38:41;30.30;;;20.50;;
56581;SDS011;42463;52.214;21.238;2022-10-16T02:41:06;33.60;;;20.30;;
56581;SDS011;42463;52.214;21.238;2022-10-16T02:43:30;31.40;;;20.50;;
56581;SDS011;42463;52.214;21.238;2022-10-16T02:45:56;28.00;;;19.20;;
56581;SDS011;42463;52.214;21.238;2022-10-16T02:48:20;28.40;;;18.80;;
56581;SDS011;42463;52.214;21.238;2022-10-16T02:50:45;32.40;;;20.40;;
56581;SDS011;42463;52.214;21.238;2022-10-16T02:53:09;30.50;;;20.50;;
56581;SDS011;42463;52.214;21.238;2022-10-16T02:55:34;31.20;;;20.20;;
56581;SDS011;42463;52.214;21.238;2022-10-16T02:57:59;30.80;;;20.10;;
56581;SDS011;42463;52.214;21.238;2022-10-16T03:00:23;27.90;;;18.70;;
56581;SDS011;42463;52.214;21.238;2022-10-16T03:02:47;31.00;;;19.50;;
56581;SDS011;42463;52.214;21.238;2022-10-16T03:05:12;30.20;;;19.80;;
56581;SDS011;42463;52.214;21.238;2022-10-16T03:07:36;30.80;;;20.40;;
56581;SDS011;42463;52.214;21.238;2022-10-16T03:10:01;28.60;;;18.60;;
56581;SDS011;42463;52.214;21.238;2022-10-16T03:12:26;31.20;;;19.50;;
56581;SDS011;42463;52.214;21.238;2022-10-16T03:14:50;29.20;;;19.40;;
56581;SDS011;42463;52.214;21.238;2022-10-16T03:17:15;30.50;;;19.20;;
56581;SDS011;42463;52.214;21.238;2022-10-16T03:19:39;29.00;;;19.70;;
56581;SDS011;42463;52.214;21.238;2022-10-16T03:22:03;28.80;;;19.20;;
56581;SDS011;42463;52.214;21.238;2022-10-16T03:24:28;28.20;;;18.50;;
56581;SDS011;42463;52.214;21.238;2022-10-16T03:26:52;26.20;;;18.00;;
56581;SDS011;42463;52.214;21.238;2022-10-16T03:29:17;30.10;;;19.50;;
56581;SDS011;42463;52.214;21.238;2022-10-16T03:31:41;30.60;;;19.40;;
56581;SDS011;42463;52.214;21.238;2022-10-16T03:34:06;31.80;;;19.60;;
56581;SDS011;42463;52.214;21.238;2022-10-16T03:36:30;26.10;;;17.80;;
56581;SDS011;42463;52.214;21.238;2022-10-16T03:38:54;28.90;;;19.50;;
56581;SDS011;42463;52.214;21.238;2022-10-16T03:41:19;28.40;;;18.30;;
56581;SDS011;42463;52.214;21.238;2022-10-16T03:43:43;27.50;;;18.80;;
56581;SDS011;42463;52.214;21.238;2022-10-16T03:46:07;26.80;;;18.90;;
56581;SDS011;42463;52.214;21.238;2022-10-16T03:48:31;26.80;;;17.50;;
56581;SDS011;42463;52.214;21.238;2022-10-16T03:50:56;26.00;;;17.90;;
56581;SDS011;42463;52.214;21.238;2022-10-16T03:53:20;25.50;;;17.40;;
56581;SDS011;42463;52.214;21.238;2022-10-16T03:55:44;25.40;;;17.20;;
56581;SDS011;42463;52.214;21.238;2022-10-16T03:58:09;23.70;;;16.70;;
56581;SDS011;42463;52.214;21.238;2022-10-16T04:00:33;29.30;;;18.00;;
56581;SDS011;42463;52.214;21.238;2022-10-16T04:02:57;26.20;;;17.60;;
56581;SDS011;42463;52.214;21.238;2022-10-16T04:05:22;30.60;;;18.80;;
56581;SDS011;42463;52.214;21.238;2022-10-16T04:07:47;28.20;;;17.50;;
56581;SDS011;42463;52.214;21.238;2022-10-16T04:10:11;26.50;;;17.30;;
56581;SDS011;42463;52.214;21.238;2022-10-16T04:12:35;29.10;;;18.30;;
56581;SDS011;42463;52.214;21.238;2022-10-16T04:14:59;25.90;;;17.90;;
56581;SDS011;42463;52.214;21.238;2022-10-16T04:17:23;23.50;;;17.00;;
56581;SDS011;42463;52.214;21.238;2022-10-16T04:19:48;23.10;;;16.40;;
56581;SDS011;42463;52.214;21.238;2022-10-16T04:22:12;23.10;;;16.70;;
56581;SDS011;42463;52.214;21.238;2022-10-16T04:24:36;26.90;;;16.80;;
56581;SDS011;42463;52.214;21.238;2022-10-16T04:27:01;24.30;;;16.80;;
56581;SDS011;42463;52.214;21.238;2022-10-16T04:29:25;27.00;;;17.20;;
56581;SDS011;42463;52.214;21.238;2022-10-16T04:31:50;26.80;;;16.80;;
56581;SDS011;42463;52.214;21.238;2022-10-16T04:34:14;27.50;;;17.00;;
56581;SDS011;42463;52.214;21.238;2022-10-16T04:36:39;25.80;;;17.10;;
56581;SDS011;42463;52.214;21.238;2022-10-16T04:41:25;21.80;;;15.00;;
56581;SDS011;42463;52.214;21.238;2022-10-16T04:43:50;23.80;;;16.10;;
56581;SDS011;42463;52.214;21.238;2022-10-16T04:46:14;29.30;;;16.10;;
56581;SDS011;42463;52.214;21.238;2022-10-16T04:48:39;26.50;;;16.20;;
56581;SDS011;42463;52.214;21.238;2022-10-16T04:51:03;24.10;;;16.90;;
56581;SDS011;42463;52.214;21.238;2022-10-16T04:53:28;23.80;;;16.40;;
56581;SDS011;42463;52.214;21.238;2022-10-16T04:55:52;23.70;;;15.80;;
56581;SDS011;42463;52.214;21.238;2022-10-16T04:58:18;24.60;;;16.10;;
56581;SDS011;42463;52.214;21.238;2022-10-16T05:00:42;26.60;;;17.30;;
56581;SDS011;42463;52.214;21.238;2022-10-16T05:03:09;27.70;;;17.30;;
56581;SDS011;42463;52.214;21.238;2022-10-16T05:05:33;24.10;;;15.70;;
56581;SDS011;42463;52.214;21.238;2022-10-16T05:07:59;22.40;;;15.00;;
56581;SDS011;42463;52.214;21.238;2022-10-16T05:10:23;25.40;;;17.20;;
56581;SDS011;42463;52.214;21.238;2022-10-16T05:12:47;27.30;;;16.90;;
56581;SDS011;42463;52.214;21.238;2022-10-16T05:15:12;26.50;;;17.30;;
56581;SDS011;42463;52.214;21.238;2022-10-16T05:17:37;18.60;;;13.30;;
56581;SDS011;42463;52.214;21.238;2022-10-16T05:20:01;25.10;;;16.40;;
56581;SDS011;42463;52.214;21.238;2022-10-16T05:22:26;24.00;;;16.40;;
56581;SDS011;42463;52.214;21.238;2022-10-16T05:24:50;25.60;;;17.00;;
56581;SDS011;42463;52.214;21.238;2022-10-16T05:27:15;24.70;;;16.70;;
56581;SDS011;42463;52.214;21.238;2022-10-16T05:29:41;25.80;;;17.30;;
56581;SDS011;42463;52.214;21.238;2022-10-16T05:32:05;25.50;;;16.60;;
56581;SDS011;42463;52.214;21.238;2022-10-16T05:34:30;19.80;;;14.10;;
56581;SDS011;42463;52.214;21.238;2022-10-16T05:36:55;27.80;;;16.80;;
56581;SDS011;42463;52.214;21.238;2022-10-16T05:39:20;24.20;;;17.20;;
56581;SDS011;42463;52.214;21.238;2022-10-16T05:41:45;21.10;;;16.00;;
56581;SDS011;42463;52.214;21.238;2022-10-16T05:44:12;29.00;;;16.80;;
56581;SDS011;42463;52.214;21.238;2022-10-16T05:46:36;23.60;;;16.10;;
56581;SDS011;42463;52.214;21.238;2022-10-16T05:49:00;24.10;;;16.30;;
56581;SDS011;42463;52.214;21.238;2022-10-16T05:51:25;22.60;;;13.90;;
56581;SDS011;42463;52.214;21.238;2022-10-16T05:53:49;19.60;;;13.80;;
56581;SDS011;42463;52.214;21.238;2022-10-16T05:56:14;23.10;;;16.60;;
56581;SDS011;42463;52.214;21.238;2022-10-16T05:58:39;25.20;;;16.20;;
56581;SDS011;42463;52.214;21.238;2022-10-16T06:01:06;24.10;;;16.30;;
56581;SDS011;42463;52.214;21.238;2022-10-16T06:03:32;23.50;;;16.20;;
56581;SDS011;42463;52.214;21.238;2022-10-16T06:05:57;21.70;;;15.30;;
56581;SDS011;42463;52.214;21.238;2022-10-16T06:08:21;23.20;;;15.50;;
56581;SDS011;42463;52.214;21.238;2022-10-16T06:10:47;22.90;;;16.00;;
56581;SDS011;42463;52.214;21.238;2022-10-16T06:13:12;21.50;;;15.80;;
56581;SDS011;42463;52.214;21.238;2022-10-16T06:15:37;22.50;;;16.10;;
56581;SDS011;42463;52.214;21.238;2022-10-16T06:18:03;27.40;;;15.90;;
56581;SDS011;42463;52.214;21.238;2022-10-16T06:20:27;26.40;;;15.90;;
56581;SDS011;42463;52.214;21.238;2022-10-16T06:22:52;21.50;;;15.60;;
56581;SDS011;42463;52.214;21.238;2022-10-16T06:25:16;20.70;;;15.20;;
56581;SDS011;42463;52.214;21.238;2022-10-16T06:27:40;21.10;;;15.20;;
56581;SDS011;42463;52.214;21.238;2022-10-16T06:30:06;21.20;;;15.10;;
56581;SDS011;42463;52.214;21.238;2022-10-16T06:32:31;23.30;;;15.70;;
56581;SDS011;42463;52.214;21.238;2022-10-16T06:34:56;21.80;;;15.60;;
56581;SDS011;42463;52.214;21.238;2022-10-16T06:37:21;22.30;;;15.00;;
56581;SDS011;42463;52.214;21.238;2022-10-16T06:39:46;23.10;;;15.90;;
56581;SDS011;42463;52.214;21.238;2022-10-16T06:42:11;20.30;;;14.10;;
56581;SDS011;42463;52.214;21.238;2022-10-16T06:44:36;22.00;;;15.00;;
56581;SDS011;42463;52.214;21.238;2022-10-16T06:47:00;24.30;;;14.90;;
56581;SDS011;42463;52.214;21.238;2022-10-16T06:49:25;25.00;;;15.00;;
56581;SDS011;42463;52.214;21.238;2022-10-16T06:51:50;21.00;;;15.20;;
56581;SDS011;42463;52.214;21.238;2022-10-16T06:54:15;22.70;;;14.40;;
56581;SDS011;42463;52.214;21.238;2022-10-16T06:56:40;23.60;;;14.90;;
56581;SDS011;42463;52.214;21.238;2022-10-16T06:59:04;19.10;;;14.10;;
56581;SDS011;42463;52.214;21.238;2022-10-16T07:01:29;22.70;;;15.60;;
56581;SDS011;42463;52.214;21.238;2022-10-16T07:03:53;23.20;;;15.10;;
56581;SDS011;42463;52.214;21.238;2022-10-16T07:06:19;24.00;;;16.00;;
56581;SDS011;42463;52.214;21.238;2022-10-16T07:08:57;21.00;;;14.70;;
56581;SDS011;42463;52.214;21.238;2022-10-16T07:11:24;22.10;;;14.60;;
56581;SDS011;42463;52.214;21.238;2022-10-16T07:13:50;22.40;;;14.60;;
56581;SDS011;42463;52.214;21.238;2022-10-16T07:16:16;23.00;;;14.70;;
56581;SDS011;42463;52.214;21.238;2022-10-16T07:18:42;23.60;;;14.30;;
56581;SDS011;42463;52.214;21.238;2022-10-16T07:21:08;20.30;;;14.80;;
56581;SDS011;42463;52.214;21.238;2022-10-16T07:23:34;21.30;;;13.80;;
56581;SDS011;42463;52.214;21.238;2022-10-16T07:26:00;22.40;;;14.80;;
56581;SDS011;42463;52.214;21.238;2022-10-16T07:28:26;19.10;;;13.90;;
56581;SDS011;42463;52.214;21.238;2022-10-16T07:30:51;21.10;;;14.90;;
56581;SDS011;42463;52.214;21.238;2022-10-16T07:33:19;21.70;;;15.20;;
56581;SDS011;42463;52.214;21.238;2022-10-16T07:35:49;21.50;;;14.90;;
56581;SDS011;42463;52.214;21.238;2022-10-16T07:38:16;20.40;;;14.70;;
56581;SDS011;42463;52.214;21.238;2022-10-16T07:40:41;20.60;;;14.10;;
56581;SDS011;42463;52.214;21.238;2022-10-16T07:43:05;21.00;;;15.20;;
56581;SDS011;42463;52.214;21.238;2022-10-16T07:45:32;23.80;;;15.60;;
56581;SDS011;42463;52.214;21.238;2022-10-16T07:47:57;23.30;;;15.30;;
56581;SDS011;42463;52.214;21.238;2022-10-16T07:50:22;21.90;;;14.80;;
56581;SDS011;42463;52.214;21.238;2022-10-16T07:52:47;19.00;;;14.20;;
56581;SDS011;42463;52.214;21.238;2022-10-16T07:55:13;19.50;;;14.40;;
56581;SDS011;42463;52.214;21.238;2022-10-16T07:57:48;21.30;;;14.70;;
56581;SDS011;42463;52.214;21.238;2022-10-16T08:00:13;22.70;;;15.50;;
56581;SDS011;42463;52.214;21.238;2022-10-16T08:02:39;20.50;;;14.70;;
56581;SDS011;42463;52.214;21.238;2022-10-16T08:05:04;19.70;;;14.00;;
56581;SDS011;42463;52.214;21.238;2022-10-16T08:07:30;20.80;;;14.30;;
56581;SDS011;42463;52.214;21.238;2022-10-16T08:09:56;24.80;;;14.70;;
56581;SDS011;42463;52.214;21.238;2022-10-16T08:12:21;21.90;;;14.50;;
56581;SDS011;42463;52.214;21.238;2022-10-16T08:14:45;20.90;;;13.80;;
56581;SDS011;42463;52.214;21.238;2022-10-16T08:17:12;17.30;;;13.10;;
56581;SDS011;42463;52.214;21.238;2022-10-16T08:19:39;19.90;;;13.40;;
56581;SDS011;42463;52.214;21.238;2022-10-16T08:22:06;20.20;;;14.60;;
56581;SDS011;42463;52.214;21.238;2022-10-16T08:24:31;17.30;;;13.00;;
56581;SDS011;42463;52.214;21.238;2022-10-16T08:26:56;21.40;;;14.40;;
56581;SDS011;42463;52.214;21.238;2022-10-16T08:29:21;21.90;;;14.20;;
56581;SDS011;42463;52.214;21.238;2022-10-16T08:31:46;20.30;;;14.20;;
56581;SDS011;42463;52.214;21.238;2022-10-16T08:34:11;18.10;;;12.70;;
56581;SDS011;42463;52.214;21.238;2022-10-16T08:36:36;20.50;;;13.80;;
56581;SDS011;42463;52.214;21.238;2022-10-16T08:39:00;18.80;;;12.30;;
56581;SDS011;42463;52.214;21.238;2022-10-16T08:41:53;18.70;;;12.40;;
56581;SDS011;42463;52.214;21.238;2022-10-16T08:44:34;17.30;;;11.30;;
56581;SDS011;42463;52.214;21.238;2022-10-16T08:47:16;16.80;;;11.90;;
56581;SDS011;42463;52.214;21.238;2022-10-16T08:49:47;17.80;;;12.30;;
56581;SDS011;42463;52.214;21.238;2022-10-16T08:52:18;17.10;;;11.90;;
56581;SDS011;42463;52.214;21.238;2022-10-16T08:54:44;15.70;;;12.50;;
56581;SDS011;42463;52.214;21.238;2022-10-16T08:57:19;17.20;;;12.60;;
56581;SDS011;42463;52.214;21.238;2022-10-16T08:59:48;19.20;;;12.70;;
56581;SDS011;42463;52.214;21.238;2022-10-16T09:02:19;17.10;;;12.10;;
56581;SDS011;42463;52.214;21.238;2022-10-16T09:04:54;15.80;;;11.90;;
56581;SDS011;42463;52.214;21.238;2022-10-16T09:07:41;19.40;;;11.80;;
56581;SDS011;42463;52.214;21.238;2022-10-16T09:10:18;18.20;;;12.50;;
56581;SDS011;42463;52.214;21.238;2022-10-16T09:12:55;17.80;;;11.80;;
56581;SDS011;42463;52.214;21.238;2022-10-16T09:15:29;17.50;;;11.90;;
56581;SDS011;42463;52.214;21.238;2022-10-16T09:18:00;18.10;;;12.30;;
56581;SDS011;42463;52.214;21.238;2022-10-16T09:20:34;16.70;;;12.50;;
56581;SDS011;42463;52.214;21.238;2022-10-16T09:23:14;16.60;;;11.90;;
56581;SDS011;42463;52.214;21.238;2022-10-16T09:25:44;19.20;;;12.00;;
56581;SDS011;42463;52.214;21.238;2022-10-16T09:28:13;18.30;;;11.30;;
56581;SDS011;42463;52.214;21.238;2022-10-16T09:30:40;17.20;;;12.20;;
56581;SDS011;42463;52.214;21.238;2022-10-16T09:33:04;16.90;;;12.40;;
56581;SDS011;42463;52.214;21.238;2022-10-16T09:35:33;20.50;;;12.50;;
56581;SDS011;42463;52.214;21.238;2022-10-16T09:38:06;16.30;;;11.30;;
56581;SDS011;42463;52.214;21.238;2022-10-16T09:40:32;17.60;;;12.30;;
56581;SDS011;42463;52.214;21.238;2022-10-16T09:43:01;18.00;;;11.80;;
56581;SDS011;42463;52.214;21.238;2022-10-16T09:45:43;18.60;;;12.20;;
56581;SDS011;42463;52.214;21.238;2022-10-16T09:48:18;15.00;;;11.20;;
56581;SDS011;42463;52.214;21.238;2022-10-16T09:50:54;19.80;;;10.60;;
56581;SDS011;42463;52.214;21.238;2022-10-16T09:53:25;15.40;;;11.60;;
56581;SDS011;42463;52.214;21.238;2022-10-16T09:55:59;16.60;;;11.40;;
56581;SDS011;42463;52.214;21.238;2022-10-16T09:58:27;15.80;;;11.40;;
56581;SDS011;42463;52.214;21.238;2022-10-16T10:00:52;16.70;;;11.70;;
56581;SDS011;42463;52.214;21.238;2022-10-16T10:03:20;17.10;;;11.70;;
56581;SDS011;42463;52.214;21.238;2022-10-16T10:05:57;15.10;;;10.60;;
56581;SDS011;42463;52.214;21.238;2022-10-16T10:08:22;15.00;;;11.60;;
56581;SDS011;42463;52.214;21.238;2022-10-16T10:10:47;15.60;;;11.80;;
56581;SDS011;42463;52.214;21.238;2022-10-16T10:13:18;16.50;;;12.60;;
56581;SDS011;42463;52.214;21.238;2022-10-16T10:15:44;15.20;;;11.50;;
56581;SDS011;42463;52.214;21.238;2022-10-16T10:18:16;14.00;;;11.20;;
56581;SDS011;42463;52.214;21.238;2022-10-16T10:20:43;14.40;;;11.30;;
56581;SDS011;42463;52.214;21.238;2022-10-16T10:23:19;14.40;;;11.20;;
56581;SDS011;42463;52.214;21.238;2022-10-16T10:26:06;13.10;;;10.10;;
56581;SDS011;42463;52.214;21.238;2022-10-16T10:31:41;15.90;;;10.70;;
56581;SDS011;42463;52.214;21.238;2022-10-16T10:34:15;13.30;;;10.40;;
56581;SDS011;42463;52.214;21.238;2022-10-16T10:36:59;15.30;;;10.80;;
56581;SDS011;42463;52.214;21.238;2022-10-16T10:39:35;13.70;;;10.00;;
56581;SDS011;42463;52.214;21.238;2022-10-16T10:42:08;16.10;;;11.20;;
56581;SDS011;42463;52.214;21.238;2022-10-16T10:47:40;16.00;;;11.70;;
56581;SDS011;42463;52.214;21.238;2022-10-16T10:50:13;14.80;;;11.00;;
56581;SDS011;42463;52.214;21.238;2022-10-16T10:52:46;16.60;;;10.90;;
56581;SDS011;42463;52.214;21.238;2022-10-16T10:55:22;14.80;;;10.50;;
56581;SDS011;42463;52.214;21.238;2022-10-16T10:58:00;15.50;;;11.50;;
56581;SDS011;42463;52.214;21.238;2022-10-16T11:00:41;15.70;;;11.50;;
56581;SDS011;42463;52.214;21.238;2022-10-16T11:03:18;12.50;;;11.00;;
56581;SDS011;42463;52.214;21.238;2022-10-16T11:05:55;15.90;;;10.80;;
56581;SDS011;42463;52.214;21.238;2022-10-16T11:08:25;14.80;;;10.80;;
56581;SDS011;42463;52.214;21.238;2022-10-16T11:10:53;14.00;;;11.00;;
56581;SDS011;42463;52.214;21.238;2022-10-16T11:13:23;15.60;;;11.50;;
56581;SDS011;42463;52.214;21.238;2022-10-16T11:15:55;13.00;;;10.40;;
56581;SDS011;42463;52.214;21.238;2022-10-16T11:18:26;15.90;;;9.80;;
56581;SDS011;42463;52.214;21.238;2022-10-16T11:21:11;13.80;;;10.60;;
56581;SDS011;42463;52.214;21.238;2022-10-16T11:23:40;15.20;;;10.50;;
56581;SDS011;42463;52.214;21.238;2022-10-16T11:26:13;14.40;;;10.10;;
56581;SDS011;42463;52.214;21.238;2022-10-16T11:28:44;16.70;;;10.60;;
56581;SDS011;42463;52.214;21.238;2022-10-16T11:31:14;13.10;;;10.30;;
56581;SDS011;42463;52.214;21.238;2022-10-16T11:33:45;14.90;;;9.90;;
56581;SDS011;42463;52.214;21.238;2022-10-16T11:36:25;14.00;;;10.10;;
56581;SDS011;42463;52.214;21.238;2022-10-16T11:39:11;14.50;;;9.80;;
56581;SDS011;42463;52.214;21.238;2022-10-16T11:44:19;12.30;;;9.80;;
56581;SDS011;42463;52.214;21.238;2022-10-16T11:46:58;13.20;;;9.80;;
56581;SDS011;42463;52.214;21.238;2022-10-16T11:49:31;12.50;;;9.50;;
56581;SDS011;42463;52.214;21.238;2022-10-16T11:51:59;11.60;;;10.10;;
56581;SDS011;42463;52.214;21.238;2022-10-16T11:54:45;14.00;;;9.40;;
56581;SDS011;42463;52.214;21.238;2022-10-16T11:57:16;15.00;;;9.60;;
56581;SDS011;42463;52.214;21.238;2022-10-16T11:59:45;11.60;;;9.20;;
56581;SDS011;42463;52.214;21.238;2022-10-16T12:02:23;11.10;;;8.30;;
56581;SDS011;42463;52.214;21.238;2022-10-16T12:05:02;10.30;;;8.20;;
56581;SDS011;42463;52.214;21.238;2022-10-16T12:07:44;13.30;;;9.40;;
56581;SDS011;42463;52.214;21.238;2022-10-16T12:10:26;13.10;;;9.10;;
56581;SDS011;42463;52.214;21.238;2022-10-16T12:12:53;11.20;;;9.40;;
56581;SDS011;42463;52.214;21.238;2022-10-16T12:15:21;12.80;;;9.00;;
56581;SDS011;42463;52.214;21.238;2022-10-16T12:17:48;12.80;;;8.40;;
56581;SDS011;42463;52.214;21.238;2022-10-16T12:23:00;12.60;;;8.60;;
56581;SDS011;42463;52.214;21.238;2022-10-16T12:25:27;13.30;;;8.60;;
56581;SDS011;42463;52.214;21.238;2022-10-16T12:27:56;11.30;;;8.80;;
56581;SDS011;42463;52.214;21.238;2022-10-16T12:30:22;10.50;;;8.10;;
56581;SDS011;42463;52.214;21.238;2022-10-16T12:32:53;11.50;;;9.20;;
56581;SDS011;42463;52.214;21.238;2022-10-16T12:35:20;12.70;;;9.30;;
56581;SDS011;42463;52.214;21.238;2022-10-16T12:37:47;11.30;;;9.00;;
56581;SDS011;42463;52.214;21.238;2022-10-16T12:40:14;10.10;;;8.40;;
56581;SDS011;42463;52.214;21.238;2022-10-16T12:42:57;11.00;;;8.60;;
56581;SDS011;42463;52.214;21.238;2022-10-16T12:45:33;11.50;;;8.50;;
56581;SDS011;42463;52.214;21.238;2022-10-16T12:47:59;12.60;;;8.40;;
56581;SDS011;42463;52.214;21.238;2022-10-16T12:50:29;11.50;;;9.00;;
56581;SDS011;42463;52.214;21.238;2022-10-16T12:52:57;12.00;;;8.30;;
56581;SDS011;42463;52.214;21.238;2022-10-16T12:55:22;14.10;;;9.10;;
56581;SDS011;42463;52.214;21.238;2022-10-16T12:57:53;14.60;;;9.10;;
56581;SDS011;42463;52.214;21.238;2022-10-16T13:00:26;10.60;;;8.20;;
56581;SDS011;42463;52.214;21.238;2022-10-16T13:05:57;11.80;;;8.80;;
56581;SDS011;42463;52.214;21.238;2022-10-16T13:08:42;10.60;;;8.50;;
56581;SDS011;42463;52.214;21.238;2022-10-16T13:11:19;11.60;;;9.00;;
56581;SDS011;42463;52.214;21.238;2022-10-16T13:16:49;10.60;;;8.60;;
56581;SDS011;42463;52.214;21.238;2022-10-16T13:19:26;10.90;;;9.00;;
56581;SDS011;42463;52.214;21.238;2022-10-16T13:21:59;11.30;;;8.70;;
56581;SDS011;42463;52.214;21.238;2022-10-16T13:24:36;9.50;;;8.50;;
56581;SDS011;42463;52.214;21.238;2022-10-16T13:27:13;12.70;;;9.60;;
56581;SDS011;42463;52.214;21.238;2022-10-16T13:29:44;10.30;;;8.60;;
56581;SDS011;42463;52.214;21.238;2022-10-16T13:32:18;11.40;;;9.00;;
56581;SDS011;42463;52.214;21.238;2022-10-16T13:35:17;14.10;;;9.50;;
56581;SDS011;42463;52.214;21.238;2022-10-16T13:37:43;11.90;;;8.90;;
56581;SDS011;42463;52.214;21.238;2022-10-16T13:40:11;12.80;;;9.20;;
56581;SDS011;42463;52.214;21.238;2022-10-16T13:42:42;12.50;;;8.90;;
56581;SDS011;42463;52.214;21.238;2022-10-16T13:45:18;11.50;;;8.50;;
56581;SDS011;42463;52.214;21.238;2022-10-16T13:47:44;11.20;;;9.70;;
56581;SDS011;42463;52.214;21.238;2022-10-16T13:50:11;12.00;;;9.10;;
56581;SDS011;42463;52.214;21.238;2022-10-16T13:52:37;10.90;;;8.70;;
56581;SDS011;42463;52.214;21.238;2022-10-16T13:55:03;11.10;;;8.90;;
56581;SDS011;42463;52.214;21.238;2022-10-16T13:57:32;13.70;;;9.40;;
56581;SDS011;42463;52.214;21.238;2022-10-16T13:59:57;13.00;;;9.60;;
56581;SDS011;42463;52.214;21.238;2022-10-16T14:02:27;9.00;;;8.00;;
56581;SDS011;42463;52.214;21.238;2022-10-16T14:04:56;12.00;;;8.70;;
56581;SDS011;42463;52.214;21.238;2022-10-16T14:07:22;12.50;;;9.10;;
56581;SDS011;42463;52.214;21.238;2022-10-16T14:09:49;13.60;;;8.90;;
56581;SDS011;42463;52.214;21.238;2022-10-16T14:12:17;14.20;;;9.90;;
56581;SDS011;42463;52.214;21.238;2022-10-16T14:14:43;14.80;;;9.40;;
56581;SDS011;42463;52.214;21.238;2022-10-16T14:17:20;13.30;;;9.30;;
56581;SDS011;42463;52.214;21.238;2022-10-16T14:19:59;13.80;;;10.00;;
56581;SDS011;42463;52.214;21.238;2022-10-16T14:22:31;13.40;;;9.60;;
56581;SDS011;42463;52.214;21.238;2022-10-16T14:24:58;11.40;;;9.10;;
56581;SDS011;42463;52.214;21.238;2022-10-16T14:27:26;12.00;;;9.20;;
56581;SDS011;42463;52.214;21.238;2022-10-16T14:30:08;12.30;;;9.20;;
56581;SDS011;42463;52.214;21.238;2022-10-16T14:32:37;12.30;;;9.60;;
56581;SDS011;42463;52.214;21.238;2022-10-16T14:35:20;14.20;;;9.50;;
56581;SDS011;42463;52.214;21.238;2022-10-16T14:38:30;13.50;;;9.60;;